createdAt,value
2022-09-30T00:03:41.624Z,12.80
2022-09-30T00:18:42.291Z,11.10
2022-09-30T00:33:42.363Z,11.30
2022-09-30T00:48:42.485Z,10.10
2022-09-30T01:03:42.593Z,8.80
2022-09-30T01:18:42.703Z,10.90
2022-09-30T01:33:42.842Z,9.80
2022-09-30T01:48:42.917Z,9.50
2022-09-30T02:03:43.067Z,9.60
2022-09-30T02:18:43.141Z,10.40
2022-09-30T02:33:43.821Z,10.20
2022-09-30T02:48:43.900Z,11.10
2022-09-30T03:03:44.030Z,9.60
2022-09-30T03:18:44.115Z,12.50
2022-09-30T03:33:44.282Z,12.10
2022-09-30T03:48:44.375Z,11.40
2022-09-30T04:03:44.497Z,12.80
2022-09-30T04:18:44.580Z,13.20
2022-09-30T04:33:44.672Z,11.50
2022-09-30T04:48:44.789Z,12.60
2022-09-30T05:03:44.889Z,14.80
2022-09-30T05:18:44.995Z,14.90
2022-09-30T05:33:45.149Z,14.80
2022-09-30T05:48:45.309Z,19.00
2022-09-30T06:03:46.326Z,17.90
2022-09-30T06:18:46.458Z,19.60
2022-09-30T06:33:47.843Z,20.70
2022-09-30T06:48:47.967Z,24.50
2022-09-30T07:03:51.482Z,22.80
2022-09-30T07:18:53.164Z,16.10
2022-09-30T07:33:53.341Z,13.80
2022-09-30T07:48:53.448Z,12.50
2022-09-30T08:03:53.537Z,12.80
2022-09-30T08:18:53.705Z,11.40
2022-09-30T08:33:53.787Z,10.80
2022-09-30T08:48:53.917Z,10.20
2022-09-30T09:03:53.968Z,9.10
2022-09-30T09:18:54.123Z,8.10
2022-09-30T09:33:54.206Z,7.90
2022-09-30T09:48:54.297Z,6.50
2022-09-30T10:03:54.590Z,6.00
2022-09-30T10:18:54.720Z,8.40
2022-09-30T10:33:54.608Z,4.50
2022-09-30T10:48:54.730Z,3.30
2022-09-30T11:03:54.989Z,3.00
2022-09-30T11:18:55.056Z,3.50
2022-09-30T11:33:55.034Z,3.70
2022-09-30T11:48:55.155Z,2.40
2022-09-30T12:03:55.408Z,2.70
2022-09-30T12:18:55.586Z,2.10
2022-09-30T12:33:55.662Z,1.90
2022-09-30T12:48:55.801Z,1.40
2022-09-30T13:03:55.890Z,1.80
2022-09-30T13:18:55.986Z,1.30
2022-09-30T13:33:56.054Z,2.40
2022-09-30T13:48:56.157Z,1.40
2022-09-30T14:03:56.341Z,6.80
2022-09-30T14:18:56.443Z,1.40
2022-09-30T14:33:56.444Z,1.90
2022-09-30T14:48:56.587Z,1.40
2022-09-30T15:03:56.621Z,8.50
2022-09-30T15:18:56.757Z,1.30
2022-09-30T15:33:56.804Z,1.30
2022-09-30T15:48:56.905Z,1.50
2022-09-30T16:03:57.022Z,2.00
2022-09-30T16:18:57.197Z,2.00
2022-09-30T16:33:57.221Z,2.50
2022-09-30T16:48:57.302Z,2.70
2022-09-30T17:03:57.404Z,3.30
2022-09-30T17:18:57.539Z,3.40
2022-09-30T17:33:57.574Z,3.30
2022-09-30T17:48:57.713Z,4.50
2022-09-30T18:03:57.807Z,5.40
2022-09-30T18:18:58.007Z,7.20
2022-09-30T18:33:58.009Z,8.40
2022-09-30T18:48:58.216Z,31.30
2022-09-30T19:03:58.301Z,17.70
2022-09-30T19:18:58.454Z,16.80
2022-09-30T19:34:00.684Z,15.60
2022-09-30T19:49:00.904Z,12.10
2022-09-30T20:04:00.963Z,12.80
2022-09-30T20:19:02.566Z,12.10
2022-09-30T20:34:02.521Z,11.80
2022-09-30T20:49:02.618Z,13.20
2022-09-30T21:04:02.701Z,12.90
2022-09-30T21:19:02.856Z,11.50
2022-09-30T21:34:03.028Z,12.30
2022-09-30T21:49:03.197Z,13.00
2022-09-30T22:04:03.738Z,12.70
2022-09-30T22:19:04.031Z,13.60
2022-09-30T22:34:03.939Z,13.20
2022-09-30T22:49:04.098Z,14.50
2022-09-30T23:04:04.360Z,13.80
2022-09-30T23:19:04.432Z,13.70
2022-09-30T23:34:04.506Z,13.90
2022-09-30T23:49:05.136Z,12.60
